createdAt,value
2023-04-28T00:00:13.081Z,4.30
2023-04-28T00:01:35.125Z,4.20
2023-04-28T00:02:57.587Z,4.20
2023-04-28T00:04:20.121Z,4.20
2023-04-28T00:05:42.703Z,4.20
2023-04-28T00:07:04.758Z,4.20
2023-04-28T00:08:27.291Z,4.20
2023-04-28T00:09:49.391Z,4.10
2023-04-28T00:11:11.764Z,4.20
2023-04-28T00:12:33.828Z,4.20
2023-04-28T00:13:56.104Z,4.10
2023-04-28T00:15:18.396Z,4.20
2023-04-28T00:16:40.926Z,4.20
2023-04-28T00:18:03.133Z,4.20
2023-04-28T00:19:25.638Z,4.20
2023-04-28T00:20:47.834Z,4.20
2023-04-28T00:22:09.892Z,4.30
2023-04-28T00:23:31.983Z,4.20
2023-04-28T00:24:53.980Z,4.30
2023-04-28T00:26:16.027Z,4.20
2023-04-28T00:27:38.114Z,4.20
2023-04-28T00:29:00.243Z,4.30
2023-04-28T00:30:22.748Z,4.30
2023-04-28T00:31:45.255Z,4.30
2023-04-28T00:33:07.403Z,4.30
2023-04-28T00:34:33.357Z,4.40
2023-04-28T00:36:01.605Z,4.40
2023-04-28T00:37:23.921Z,4.40
2023-04-28T00:38:46.123Z,4.40
2023-04-28T00:40:08.870Z,4.40
2023-04-28T00:41:30.938Z,4.40
2023-04-28T00:42:52.986Z,4.40
2023-04-28T00:44:15.223Z,4.40
2023-04-28T00:45:37.478Z,4.40
2023-04-28T00:46:59.844Z,4.40
2023-04-28T00:48:23.711Z,4.40
2023-04-28T00:49:47.627Z,4.40
2023-04-28T00:51:09.696Z,4.40
2023-04-28T00:52:32.386Z,4.40
2023-04-28T00:53:54.698Z,4.40
2023-04-28T00:55:17.028Z,4.40
2023-04-28T00:56:39.247Z,4.30
2023-04-28T00:58:02.535Z,4.30
2023-04-28T00:59:24.636Z,4.30
2023-04-28T01:00:46.768Z,4.30
2023-04-28T01:02:09.080Z,4.30
2023-04-28T01:03:34.357Z,4.30
2023-04-28T01:04:58.141Z,4.30
2023-04-28T01:06:20.969Z,4.30
2023-04-28T01:07:42.989Z,4.30
2023-04-28T01:09:06.304Z,4.30
2023-04-28T01:10:28.398Z,4.30
2023-04-28T01:11:50.526Z,4.30
2023-04-28T01:13:12.543Z,4.30
2023-04-28T01:14:34.810Z,4.30
2023-04-28T01:15:57.189Z,4.30
2023-04-28T01:17:19.392Z,4.30
2023-04-28T01:18:47.938Z,4.30
2023-04-28T01:20:10.512Z,4.30
2023-04-28T01:21:32.908Z,4.20
2023-04-28T01:22:54.963Z,4.20
2023-04-28T01:24:18.095Z,4.30
2023-04-28T01:25:41.242Z,4.20
2023-04-28T01:27:03.411Z,4.20
2023-04-28T01:28:25.599Z,4.20
2023-04-28T01:29:47.669Z,4.30
2023-04-28T01:31:09.772Z,4.20
2023-04-28T01:32:32.030Z,4.30
2023-04-28T01:33:54.144Z,4.30
2023-04-28T01:35:16.258Z,4.30
2023-04-28T01:36:38.403Z,4.30
2023-04-28T01:38:00.797Z,4.30
2023-04-28T01:39:22.902Z,4.30
2023-04-28T01:40:44.947Z,4.20
2023-04-28T01:42:07.134Z,4.30
2023-04-28T01:43:29.647Z,4.30
2023-04-28T01:44:51.717Z,4.30
2023-04-28T01:46:13.871Z,4.30
2023-04-28T01:47:36.092Z,4.30
2023-04-28T01:48:58.186Z,4.30
2023-04-28T01:50:20.411Z,4.40
2023-04-28T01:51:42.875Z,4.40
2023-04-28T01:53:05.464Z,4.40
2023-04-28T01:54:27.952Z,4.40
2023-04-28T01:55:50.072Z,4.50
2023-04-28T01:57:12.110Z,4.50
2023-04-28T01:58:34.270Z,4.50
2023-04-28T01:59:56.729Z,4.60
2023-04-28T02:01:19.222Z,4.60
2023-04-28T02:02:41.918Z,4.60
2023-04-28T02:04:04.180Z,4.60
2023-04-28T02:05:26.297Z,4.70
2023-04-28T02:06:48.319Z,4.70
2023-04-28T02:08:10.686Z,4.70
2023-04-28T02:09:33.412Z,4.70
2023-04-28T02:10:57.169Z,4.80
2023-04-28T02:12:19.295Z,4.80
2023-04-28T02:13:41.643Z,4.80
2023-04-28T02:15:03.997Z,4.80
2023-04-28T02:16:26.127Z,4.80
2023-04-28T02:17:48.269Z,4.80
2023-04-28T02:19:10.497Z,4.90
2023-04-28T02:20:33.359Z,4.90
2023-04-28T02:21:55.628Z,4.90
2023-04-28T02:23:17.733Z,4.90
2023-04-28T02:24:39.815Z,4.90
2023-04-28T02:26:03.579Z,5.00
2023-04-28T02:27:25.988Z,4.90
2023-04-28T02:28:49.125Z,5.00
2023-04-28T02:30:11.514Z,5.00
2023-04-28T02:31:33.817Z,5.10
2023-04-28T02:32:55.963Z,5.10
2023-04-28T02:34:18.216Z,5.10
2023-04-28T02:35:40.382Z,5.10
2023-04-28T02:37:02.847Z,5.10
2023-04-28T02:38:24.917Z,5.10
2023-04-28T02:39:47.082Z,5.20
2023-04-28T02:41:09.515Z,5.20
2023-04-28T02:42:31.684Z,5.20
2023-04-28T02:43:53.743Z,5.20
2023-04-28T02:45:15.862Z,5.20
2023-04-28T02:46:37.920Z,5.20
2023-04-28T02:48:03.501Z,5.20
2023-04-28T02:49:25.622Z,5.20
2023-04-28T02:50:47.701Z,5.20
2023-04-28T02:52:09.824Z,5.20
2023-04-28T02:53:31.986Z,5.20
2023-04-28T02:54:57.200Z,5.20
2023-04-28T02:56:19.273Z,5.20
2023-04-28T02:57:41.344Z,5.30
2023-04-28T02:59:03.940Z,5.30
2023-04-28T03:00:26.056Z,5.30
2023-04-28T03:01:48.580Z,5.30
2023-04-28T03:03:11.072Z,5.20
2023-04-28T03:04:33.433Z,5.20
2023-04-28T03:05:56.974Z,5.20
2023-04-28T03:07:19.199Z,5.20
2023-04-28T03:08:41.476Z,5.10
2023-04-28T03:10:03.663Z,5.00
2023-04-28T03:11:25.720Z,5.00
2023-04-28T03:12:47.907Z,4.90
2023-04-28T03:14:09.955Z,4.90
2023-04-28T03:15:32.056Z,4.80
2023-04-28T03:16:54.156Z,4.80
2023-04-28T03:18:16.459Z,4.80
2023-04-28T03:19:38.490Z,4.80
2023-04-28T03:21:00.583Z,4.80
2023-04-28T03:22:22.702Z,4.70
2023-04-28T03:23:44.819Z,4.70
2023-04-28T03:25:07.528Z,4.70
2023-04-28T03:26:29.617Z,4.70
2023-04-28T03:27:51.748Z,4.70
2023-04-28T03:29:13.766Z,4.60
2023-04-28T03:30:36.213Z,4.60
2023-04-28T03:31:58.296Z,4.60
2023-04-28T03:33:20.429Z,4.60
2023-04-28T03:34:42.462Z,4.60
2023-04-28T03:36:04.648Z,4.50
2023-04-28T03:37:27.244Z,4.50
2023-04-28T03:38:49.278Z,4.50
2023-04-28T03:40:11.885Z,4.50
2023-04-28T03:41:33.930Z,4.50
2023-04-28T03:42:55.988Z,4.50
2023-04-28T03:44:18.238Z,4.40
2023-04-28T03:45:41.474Z,4.40
2023-04-28T03:47:03.578Z,4.40
2023-04-28T03:48:25.771Z,4.40
2023-04-28T03:49:47.819Z,4.30
2023-04-28T03:51:09.974Z,4.30
2023-04-28T03:52:32.438Z,4.30
2023-04-28T03:53:54.796Z,4.30
2023-04-28T03:55:16.957Z,4.30
2023-04-28T03:56:39.052Z,4.30
2023-04-28T03:58:01.335Z,4.40
2023-04-28T03:59:23.902Z,4.40
2023-04-28T04:00:46.614Z,4.40
2023-04-28T04:02:08.743Z,4.50
2023-04-28T04:03:31.002Z,4.50
2023-04-28T04:04:53.454Z,4.50
2023-04-28T04:06:16.274Z,4.60
2023-04-28T04:07:38.402Z,4.60
2023-04-28T04:09:00.472Z,4.60
2023-04-28T04:10:22.511Z,4.70
2023-04-28T04:11:44.633Z,4.80
2023-04-28T04:13:06.966Z,4.80
2023-04-28T04:14:29.035Z,4.90
2023-04-28T04:15:52.733Z,5.00
2023-04-28T04:17:14.893Z,5.00
2023-04-28T04:18:36.948Z,5.10
2023-04-28T04:19:58.997Z,5.20
2023-04-28T04:21:21.204Z,5.40
2023-04-28T04:22:43.261Z,5.90
2023-04-28T04:24:05.826Z,6.50
2023-04-28T04:25:28.283Z,7.30
2023-04-28T04:26:50.598Z,7.90
2023-04-28T04:28:12.697Z,8.60
2023-04-28T04:29:34.873Z,9.20
2023-04-28T04:30:56.979Z,9.80
2023-04-28T04:32:19.040Z,10.30
2023-04-28T04:33:41.256Z,10.80
2023-04-28T04:35:03.424Z,11.30
2023-04-28T04:36:25.520Z,11.80
2023-04-28T04:37:47.706Z,12.20
2023-04-28T04:39:10.152Z,12.60
2023-04-28T04:40:32.481Z,13.00
2023-04-28T04:41:54.572Z,13.40
2023-04-28T04:43:16.639Z,13.80
2023-04-28T04:44:38.677Z,14.20
2023-04-28T04:46:00.908Z,14.50
2023-04-28T04:47:23.932Z,14.80
2023-04-28T04:48:46.083Z,15.00
2023-04-28T04:50:08.847Z,15.10
2023-04-28T04:51:32.479Z,15.20
2023-04-28T04:52:56.640Z,15.50
2023-04-28T04:54:18.822Z,15.70
2023-04-28T04:55:40.981Z,15.90
2023-04-28T04:57:03.499Z,15.90
2023-04-28T04:58:25.858Z,16.20
2023-04-28T04:59:47.942Z,16.40
2023-04-28T05:01:10.266Z,16.70
2023-04-28T05:02:33.550Z,16.80
2023-04-28T05:03:56.038Z,16.90
2023-04-28T05:05:21.784Z,17.10
2023-04-28T05:06:45.026Z,17.00
2023-04-28T05:08:07.113Z,16.70
2023-04-28T05:09:30.567Z,16.60
2023-04-28T05:10:52.615Z,16.60
2023-04-28T05:12:14.743Z,16.70
2023-04-28T05:13:36.892Z,16.50
2023-04-28T05:14:58.953Z,16.00
2023-04-28T05:16:21.363Z,15.30
2023-04-28T05:17:43.809Z,14.60
2023-04-28T05:19:05.971Z,14.00
2023-04-28T05:20:28.227Z,13.50
2023-04-28T05:21:52.679Z,13.10
2023-04-28T05:23:15.097Z,12.90
2023-04-28T05:24:37.237Z,13.00
2023-04-28T05:25:59.287Z,13.20
2023-04-28T05:27:21.316Z,13.60
2023-04-28T05:28:43.485Z,14.30
2023-04-28T05:30:10.429Z,15.00
2023-04-28T05:31:32.668Z,15.60
2023-04-28T05:32:54.895Z,16.20
2023-04-28T05:34:17.203Z,16.70
2023-04-28T05:35:39.820Z,17.20
2023-04-28T05:37:01.928Z,17.60
2023-04-28T05:38:24.033Z,17.90
2023-04-28T05:39:46.255Z,18.20
2023-04-28T05:41:08.308Z,18.30
2023-04-28T05:42:30.427Z,18.50
2023-04-28T05:43:52.542Z,18.60
2023-04-28T05:45:15.230Z,18.50
2023-04-28T05:46:37.556Z,18.40
2023-04-28T05:47:59.629Z,18.30
2023-04-28T05:49:21.842Z,18.20
2023-04-28T05:50:43.955Z,18.20
2023-04-28T05:52:06.295Z,18.10
2023-04-28T05:53:31.134Z,18.00
2023-04-28T05:54:57.576Z,17.80
2023-04-28T05:56:20.477Z,17.60
2023-04-28T05:57:52.423Z,17.30
2023-04-28T05:59:15.963Z,17.10
2023-04-28T06:00:38.338Z,16.80
2023-04-28T06:02:00.505Z,16.50
2023-04-28T06:03:22.802Z,16.30
2023-04-28T06:04:45.503Z,15.90
2023-04-28T06:06:10.355Z,15.60
2023-04-28T06:07:32.855Z,15.40
2023-04-28T06:08:54.991Z,15.10
2023-04-28T06:10:17.420Z,14.80
2023-04-28T06:11:39.621Z,14.60
2023-04-28T06:13:02.539Z,14.40
2023-04-28T06:14:24.659Z,14.30
2023-04-28T06:15:46.787Z,14.10
2023-04-28T06:17:09.359Z,14.00
2023-04-28T06:18:34.711Z,13.90
2023-04-28T06:19:58.910Z,13.80
2023-04-28T06:21:21.424Z,13.70
2023-04-28T06:22:43.758Z,13.70
2023-04-28T06:24:06.085Z,13.70
2023-04-28T06:25:28.187Z,13.70
2023-04-28T06:26:50.287Z,13.70
2023-04-28T06:28:13.427Z,13.70
2023-04-28T06:29:35.540Z,13.70
2023-04-28T06:30:57.607Z,13.80
2023-04-28T06:32:19.768Z,13.90
2023-04-28T06:33:41.829Z,13.90
2023-04-28T06:35:04.256Z,13.90
2023-04-28T06:36:29.057Z,14.00
2023-04-28T06:37:51.112Z,14.10
2023-04-28T06:39:13.343Z,14.00
2023-04-28T06:40:35.432Z,13.90
2023-04-28T06:41:57.772Z,13.80
2023-04-28T06:43:20.199Z,13.80
2023-04-28T06:44:42.434Z,13.90
2023-04-28T06:46:04.720Z,14.00
2023-04-28T06:47:27.073Z,13.90
2023-04-28T06:48:49.151Z,13.80
2023-04-28T06:50:11.308Z,13.90
2023-04-28T06:51:33.467Z,13.80
2023-04-28T06:52:55.528Z,13.70
2023-04-28T06:54:18.484Z,13.70
2023-04-28T06:55:40.990Z,13.70
2023-04-28T06:57:03.093Z,13.70
2023-04-28T06:58:25.217Z,13.70
2023-04-28T06:59:50.296Z,13.70
2023-04-28T07:01:16.360Z,13.70
2023-04-28T07:02:42.884Z,13.70
2023-04-28T07:04:06.448Z,13.80
2023-04-28T07:05:32.307Z,13.80
2023-04-28T07:06:54.647Z,13.90
2023-04-28T07:08:17.650Z,14.00
2023-04-28T07:09:40.553Z,14.10
2023-04-28T07:11:06.244Z,14.00
2023-04-28T07:12:28.619Z,13.90
2023-04-28T07:13:51.728Z,13.80
2023-04-28T07:15:14.004Z,13.70
2023-04-28T07:16:37.350Z,13.60
2023-04-28T07:17:59.680Z,13.60
2023-04-28T07:19:21.983Z,13.60
2023-04-28T07:20:46.292Z,13.60
2023-04-28T07:22:08.396Z,13.70
2023-04-28T07:23:30.495Z,13.70
2023-04-28T07:24:53.016Z,13.70
2023-04-28T07:26:16.414Z,13.70
2023-04-28T07:27:38.601Z,13.80
2023-04-28T07:29:00.694Z,13.80
2023-04-28T07:30:28.031Z,13.70
2023-04-28T07:31:50.892Z,13.60
2023-04-28T07:33:12.968Z,13.60
2023-04-28T07:34:35.865Z,13.50
2023-04-28T07:35:58.041Z,13.50
2023-04-28T07:37:20.172Z,13.50
2023-04-28T07:38:42.294Z,13.40
2023-04-28T07:40:06.174Z,13.50
2023-04-28T07:41:28.978Z,13.50
2023-04-28T07:42:51.646Z,13.40
2023-04-28T07:44:13.772Z,13.40
2023-04-28T07:45:39.948Z,13.50
2023-04-28T07:47:02.831Z,13.50
2023-04-28T07:48:25.139Z,13.60
2023-04-28T07:49:47.268Z,13.60
2023-04-28T07:51:09.289Z,13.70
2023-04-28T07:52:32.466Z,13.70
2023-04-28T07:53:54.659Z,13.80
2023-04-28T07:55:16.815Z,13.80
2023-04-28T07:56:38.969Z,13.90
2023-04-28T07:58:01.672Z,13.90
2023-04-28T07:59:23.884Z,13.90
2023-04-28T08:00:46.356Z,13.90
2023-04-28T08:02:08.499Z,13.90
2023-04-28T08:03:30.911Z,13.90
2023-04-28T08:04:53.514Z,13.80
2023-04-28T08:06:15.869Z,13.80
2023-04-28T08:07:38.076Z,13.80
2023-04-28T08:09:02.315Z,13.80
2023-04-28T08:10:26.500Z,13.90
2023-04-28T08:11:48.582Z,13.90
2023-04-28T08:13:10.752Z,14.00
2023-04-28T08:14:33.018Z,14.00
2023-04-28T08:16:00.600Z,14.10
2023-04-28T08:17:22.788Z,14.20
2023-04-28T08:18:45.850Z,14.30
2023-04-28T08:20:08.886Z,14.30
2023-04-28T08:21:30.951Z,14.30
2023-04-28T08:22:53.003Z,14.20
2023-04-28T08:24:15.620Z,14.10
2023-04-28T08:25:38.056Z,14.00
2023-04-28T08:27:03.987Z,13.90
2023-04-28T08:28:27.337Z,13.80
2023-04-28T08:29:49.875Z,13.70
2023-04-28T08:31:12.001Z,13.60
2023-04-28T08:32:34.121Z,13.50
2023-04-28T08:33:56.227Z,13.50
2023-04-28T08:35:19.263Z,13.40
2023-04-28T08:36:41.490Z,13.40
2023-04-28T08:38:03.679Z,13.40
2023-04-28T08:39:26.830Z,13.40
2023-04-28T08:40:48.926Z,13.40
2023-04-28T08:42:11.181Z,13.30
2023-04-28T08:43:35.707Z,13.30
2023-04-28T08:45:02.118Z,13.30
2023-04-28T08:46:27.179Z,13.30
2023-04-28T08:47:50.069Z,13.40
2023-04-28T08:49:17.226Z,13.50
2023-04-28T08:50:41.806Z,13.50
2023-04-28T08:52:13.540Z,13.60
2023-04-28T08:53:59.476Z,13.60
2023-04-28T08:55:21.318Z,13.70
2023-04-28T08:56:46.462Z,13.90
2023-04-28T08:58:09.238Z,13.90
2023-04-28T08:59:31.421Z,14.00
2023-04-28T09:00:54.503Z,14.10
2023-04-28T09:02:17.257Z,14.20
2023-04-28T09:03:40.391Z,14.20
2023-04-28T09:05:03.363Z,14.30
2023-04-28T09:06:26.293Z,14.40
2023-04-28T09:07:51.884Z,14.40
2023-04-28T09:09:26.791Z,14.50
2023-04-28T09:11:05.156Z,14.50
2023-04-28T09:12:37.455Z,14.60
2023-04-28T09:14:13.667Z,14.60
2023-04-28T09:15:42.926Z,14.70
2023-04-28T09:17:13.309Z,14.70
2023-04-28T09:18:35.682Z,14.80
2023-04-28T09:19:57.911Z,14.90
2023-04-28T09:21:20.230Z,15.00
2023-04-28T09:22:42.317Z,15.00
2023-04-28T09:24:04.799Z,15.00
2023-04-28T09:25:28.027Z,15.00
2023-04-28T09:26:54.837Z,15.10
2023-04-28T09:28:24.097Z,15.20
2023-04-28T09:29:54.101Z,15.20
2023-04-28T09:31:25.177Z,15.40
2023-04-28T09:33:05.211Z,15.60
2023-04-28T09:34:45.586Z,15.60
2023-04-28T09:36:07.952Z,15.50
2023-04-28T09:37:31.192Z,15.40
2023-04-28T09:38:56.978Z,15.50
2023-04-28T09:40:20.334Z,15.50
2023-04-28T09:41:45.509Z,15.50
2023-04-28T09:43:33.256Z,15.50
2023-04-28T09:44:55.311Z,15.50
2023-04-28T09:46:29.575Z,15.50
2023-04-28T09:47:52.504Z,15.50
2023-04-28T09:49:15.580Z,15.60
2023-04-28T09:50:41.837Z,15.60
2023-04-28T09:52:13.875Z,15.70
2023-04-28T09:53:36.123Z,15.70
2023-04-28T09:54:58.392Z,15.70
2023-04-28T09:56:22.254Z,15.70
2023-04-28T09:57:49.427Z,15.70
2023-04-28T09:59:13.279Z,15.70
2023-04-28T10:00:37.326Z,15.90
2023-04-28T10:02:00.896Z,15.90
2023-04-28T10:03:30.393Z,16.00
2023-04-28T10:04:53.390Z,16.00
2023-04-28T10:06:16.042Z,16.00
2023-04-28T10:07:39.126Z,16.00
2023-04-28T10:09:02.416Z,16.10
2023-04-28T10:10:25.304Z,16.10
2023-04-28T10:11:48.343Z,16.30
2023-04-28T10:13:11.467Z,16.40
2023-04-28T10:14:34.105Z,16.60
2023-04-28T10:15:58.392Z,16.50
2023-04-28T10:17:22.221Z,16.50
2023-04-28T10:18:46.198Z,16.40
2023-04-28T10:20:09.122Z,16.50
2023-04-28T10:21:36.337Z,16.60
2023-04-28T10:23:25.828Z,16.60
2023-04-28T10:25:12.871Z,16.60
2023-04-28T10:26:56.553Z,16.50
2023-04-28T10:28:19.709Z,16.50
2023-04-28T10:29:42.401Z,16.50
2023-04-28T10:31:16.135Z,16.50
2023-04-28T10:32:38.675Z,16.70
2023-04-28T10:34:24.263Z,16.70
2023-04-28T10:35:47.608Z,16.80
2023-04-28T10:37:09.800Z,16.80
2023-04-28T10:38:32.229Z,16.80
2023-04-28T10:40:31.516Z,16.90
2023-04-28T10:41:53.595Z,17.00
2023-04-28T10:43:31.768Z,17.20
2023-04-28T10:44:53.776Z,17.20
2023-04-28T10:46:16.131Z,17.20
2023-04-28T10:48:06.231Z,17.20
2023-04-28T10:49:57.597Z,17.00
2023-04-28T10:51:19.791Z,17.00
2023-04-28T10:52:44.551Z,16.90
2023-04-28T10:54:09.599Z,17.00
2023-04-28T10:55:40.273Z,17.10
2023-04-28T10:57:18.943Z,17.20
2023-04-28T10:58:46.181Z,17.10
2023-04-28T11:00:30.770Z,17.00
2023-04-28T11:01:52.867Z,17.00
2023-04-28T11:03:39.698Z,17.00
2023-04-28T11:05:12.376Z,17.10
2023-04-28T11:06:40.565Z,17.20
2023-04-28T11:08:33.102Z,17.20
2023-04-28T11:09:55.131Z,17.20
2023-04-28T11:11:18.353Z,17.30
2023-04-28T11:13:19.392Z,17.40
2023-04-28T11:14:41.459Z,17.50
2023-04-28T11:16:04.671Z,17.40
2023-04-28T11:17:40.884Z,17.30
2023-04-28T11:19:04.860Z,17.30
2023-04-28T11:20:28.387Z,17.30
2023-04-28T11:21:51.950Z,17.30
2023-04-28T11:23:14.673Z,17.40
2023-04-28T11:24:36.951Z,17.60
2023-04-28T11:25:59.070Z,17.60
2023-04-28T11:27:28.536Z,17.70
2023-04-28T11:28:54.709Z,17.90
2023-04-28T11:30:26.478Z,18.10
2023-04-28T11:31:52.009Z,18.20
2023-04-28T11:33:14.349Z,18.30
2023-04-28T11:34:37.376Z,18.40
2023-04-28T11:35:59.471Z,18.50
2023-04-28T11:37:22.855Z,18.50
2023-04-28T11:38:45.475Z,18.50
2023-04-28T11:40:12.882Z,18.60
2023-04-28T11:41:36.731Z,18.50
2023-04-28T11:43:03.976Z,18.60
2023-04-28T11:44:28.508Z,18.60
2023-04-28T11:45:50.576Z,18.60
2023-04-28T11:47:12.691Z,18.60
2023-04-28T11:48:35.223Z,18.50
2023-04-28T11:49:57.964Z,18.50
2023-04-28T11:51:38.466Z,18.50
2023-04-28T11:53:00.619Z,18.40
2023-04-28T11:54:28.308Z,18.40
2023-04-28T11:56:04.585Z,18.40
2023-04-28T11:57:26.924Z,18.40
2023-04-28T11:59:02.584Z,18.40
2023-04-28T12:00:26.561Z,18.40
2023-04-28T12:01:48.574Z,18.40
2023-04-28T12:03:10.897Z,18.40
2023-04-28T12:04:38.160Z,18.40
2023-04-28T12:06:03.003Z,18.40
2023-04-28T12:07:25.170Z,18.50
2023-04-28T12:08:47.902Z,18.50
2023-04-28T12:10:15.670Z,18.60
2023-04-28T12:11:37.818Z,18.60
2023-04-28T12:13:16.076Z,18.70
2023-04-28T12:15:08.106Z,18.70
2023-04-28T12:16:45.018Z,18.70
2023-04-28T12:18:11.930Z,18.70
2023-04-28T12:19:45.634Z,18.80
2023-04-28T12:21:21.532Z,18.80
2023-04-28T12:22:50.830Z,18.80
2023-04-28T12:24:21.376Z,18.90
2023-04-28T12:25:47.846Z,19.00
2023-04-28T12:27:24.853Z,19.10
2023-04-28T12:28:47.036Z,19.10
2023-04-28T12:30:21.745Z,19.00
2023-04-28T12:31:56.829Z,18.90
2023-04-28T12:33:27.287Z,18.90
2023-04-28T12:34:50.914Z,18.90
2023-04-28T12:36:13.259Z,19.00
2023-04-28T12:37:35.885Z,19.00
2023-04-28T12:38:57.894Z,19.00
2023-04-28T12:40:20.044Z,19.00
2023-04-28T12:41:42.517Z,19.10
2023-04-28T12:43:04.535Z,19.10
2023-04-28T12:44:28.400Z,19.00
2023-04-28T12:45:55.664Z,18.90
2023-04-28T12:47:20.506Z,18.90
2023-04-28T12:48:42.565Z,18.90
2023-04-28T12:50:05.908Z,18.90
2023-04-28T12:51:29.631Z,18.90
2023-04-28T12:52:51.643Z,18.60
2023-04-28T12:54:15.251Z,18.60
2023-04-28T12:55:39.909Z,18.60
2023-04-28T12:57:02.987Z,18.70
2023-04-28T12:58:25.078Z,18.80
2023-04-28T12:59:52.398Z,18.90
2023-04-28T13:01:15.998Z,18.90
2023-04-28T13:02:38.345Z,19.10
2023-04-28T13:04:00.795Z,19.20
2023-04-28T13:05:23.015Z,19.30
2023-04-28T13:06:45.474Z,19.20
2023-04-28T13:08:07.589Z,19.30
2023-04-28T13:09:29.770Z,19.30
2023-04-28T13:10:51.819Z,19.40
2023-04-28T13:12:13.978Z,19.50
2023-04-28T13:13:36.028Z,19.70
2023-04-28T13:14:58.041Z,19.70
2023-04-28T13:16:20.403Z,19.70
2023-04-28T13:17:42.718Z,19.70
2023-04-28T13:19:09.462Z,19.70
2023-04-28T13:20:31.497Z,19.50
2023-04-28T13:21:54.139Z,19.30
2023-04-28T13:23:16.196Z,19.10
2023-04-28T13:24:38.232Z,19.00
2023-04-28T13:26:00.450Z,18.90
2023-04-28T13:27:22.623Z,19.10
2023-04-28T13:28:44.737Z,19.20
2023-04-28T13:30:08.634Z,19.30
2023-04-28T13:31:32.699Z,19.40
2023-04-28T13:32:56.878Z,19.30
2023-04-28T13:34:19.580Z,19.20
2023-04-28T13:35:42.135Z,19.20
2023-04-28T13:37:04.203Z,19.20
2023-04-28T13:38:27.023Z,19.10
2023-04-28T13:39:49.102Z,19.00
2023-04-28T13:41:11.220Z,19.00
2023-04-28T13:42:33.264Z,19.00
2023-04-28T13:43:55.638Z,18.80
2023-04-28T13:45:18.010Z,18.60
2023-04-28T13:46:40.605Z,18.40
2023-04-28T13:48:03.913Z,18.20
2023-04-28T13:49:26.093Z,18.10
2023-04-28T13:50:49.531Z,18.10
2023-04-28T13:52:12.449Z,18.10
2023-04-28T13:53:37.982Z,18.20
2023-04-28T13:55:00.096Z,18.30
2023-04-28T13:56:22.348Z,18.30
2023-04-28T13:57:44.369Z,18.30
2023-04-28T13:59:06.573Z,18.10
2023-04-28T14:00:28.600Z,18.00
2023-04-28T14:01:50.716Z,17.80
2023-04-28T14:03:13.002Z,17.50
2023-04-28T14:04:35.688Z,17.10
2023-04-28T14:05:58.947Z,17.00
2023-04-28T14:07:21.138Z,16.80
2023-04-28T14:08:43.161Z,16.80
2023-04-28T14:10:06.065Z,16.70
2023-04-28T14:11:28.197Z,16.60
2023-04-28T14:12:50.467Z,16.60
2023-04-28T14:14:12.567Z,16.60
2023-04-28T14:15:35.150Z,16.60
2023-04-28T14:16:59.243Z,16.60
2023-04-28T14:18:21.381Z,16.60
2023-04-28T14:19:44.590Z,16.70
2023-04-28T14:21:09.405Z,16.80
2023-04-28T14:22:31.478Z,16.80
2023-04-28T14:23:53.516Z,16.60
2023-04-28T14:25:16.674Z,16.50
2023-04-28T14:26:38.975Z,16.50
2023-04-28T14:28:01.039Z,16.50
2023-04-28T14:29:23.225Z,16.40
2023-04-28T14:30:45.337Z,16.30
2023-04-28T14:32:07.390Z,16.20
2023-04-28T14:33:29.507Z,16.00
2023-04-28T14:34:51.733Z,15.90
2023-04-28T14:36:14.074Z,15.70
2023-04-28T14:37:36.322Z,15.70
2023-04-28T14:38:58.693Z,15.60
2023-04-28T14:40:21.068Z,15.60
2023-04-28T14:41:43.126Z,15.60
2023-04-28T14:43:05.424Z,15.60
2023-04-28T14:44:27.652Z,15.50
2023-04-28T14:45:50.381Z,15.50
2023-04-28T14:47:12.586Z,15.50
2023-04-28T14:48:34.840Z,15.50
2023-04-28T14:49:57.928Z,15.40
2023-04-28T14:51:19.977Z,15.30
2023-04-28T14:52:42.517Z,15.20
2023-04-28T14:54:05.135Z,15.10
2023-04-28T14:55:27.199Z,15.00
2023-04-28T14:56:50.321Z,15.00
2023-04-28T14:58:12.386Z,15.00
2023-04-28T14:59:35.554Z,14.90
2023-04-28T15:00:57.796Z,14.80
2023-04-28T15:02:27.833Z,14.60
2023-04-28T15:03:50.533Z,14.60
2023-04-28T15:05:12.851Z,14.60
2023-04-28T15:06:35.229Z,14.60
2023-04-28T15:07:57.443Z,14.70
2023-04-28T15:09:19.446Z,14.70
2023-04-28T15:10:41.762Z,14.70
2023-04-28T15:12:04.164Z,14.60
2023-04-28T15:13:28.382Z,14.50
2023-04-28T15:14:53.403Z,14.50
2023-04-28T15:16:16.333Z,14.50
2023-04-28T15:17:39.002Z,14.40
2023-04-28T15:19:01.169Z,14.50
2023-04-28T15:20:23.179Z,14.50
2023-04-28T15:21:46.438Z,14.50
2023-04-28T15:23:09.490Z,14.50
2023-04-28T15:24:31.500Z,14.60
2023-04-28T15:25:54.124Z,14.60
2023-04-28T15:27:16.308Z,14.60
2023-04-28T15:28:38.408Z,14.60
2023-04-28T15:30:01.232Z,14.60
2023-04-28T15:31:23.835Z,14.50
2023-04-28T15:32:45.929Z,14.40
2023-04-28T15:34:08.498Z,14.40
2023-04-28T15:35:32.693Z,14.30
2023-04-28T15:36:54.807Z,14.30
2023-04-28T15:38:17.598Z,14.20
2023-04-28T15:39:39.688Z,14.20
2023-04-28T15:41:01.841Z,14.20
2023-04-28T15:42:23.920Z,14.20
2023-04-28T15:43:46.046Z,14.10
2023-04-28T15:45:10.389Z,14.00
2023-04-28T15:46:32.906Z,14.00
2023-04-28T15:47:55.739Z,13.90
2023-04-28T15:49:17.825Z,13.70
2023-04-28T15:50:40.158Z,13.60
2023-04-28T15:52:02.297Z,13.50
2023-04-28T15:53:25.849Z,13.50
2023-04-28T15:54:48.144Z,13.40
2023-04-28T15:56:11.278Z,13.30
2023-04-28T15:57:33.519Z,13.30
2023-04-28T15:58:55.773Z,13.20
2023-04-28T16:00:17.927Z,13.30
2023-04-28T16:01:40.141Z,13.30
2023-04-28T16:03:03.366Z,13.30
2023-04-28T16:04:25.679Z,13.30
2023-04-28T16:05:48.066Z,13.30
2023-04-28T16:07:10.782Z,13.20
2023-04-28T16:08:33.383Z,13.20
2023-04-28T16:09:55.592Z,13.10
2023-04-28T16:11:19.452Z,13.00
2023-04-28T16:12:42.580Z,13.00
2023-04-28T16:14:04.707Z,13.10
2023-04-28T16:15:27.193Z,13.10
2023-04-28T16:16:50.100Z,13.10
2023-04-28T16:18:12.788Z,13.10
2023-04-28T16:19:34.966Z,13.10
2023-04-28T16:20:57.010Z,13.20
2023-04-28T16:22:19.547Z,13.20
2023-04-28T16:23:41.655Z,13.30
2023-04-28T16:25:04.080Z,13.30
2023-04-28T16:26:26.715Z,13.30
2023-04-28T16:27:48.855Z,13.30
2023-04-28T16:29:13.517Z,13.20
2023-04-28T16:30:36.467Z,13.10
2023-04-28T16:31:58.580Z,13.00
2023-04-28T16:33:20.760Z,13.00
2023-04-28T16:34:42.799Z,12.90
2023-04-28T16:36:05.299Z,12.80
2023-04-28T16:37:27.627Z,12.70
2023-04-28T16:38:49.738Z,12.60
2023-04-28T16:40:14.955Z,12.50
2023-04-28T16:41:37.608Z,12.40
2023-04-28T16:42:59.610Z,12.40
2023-04-28T16:44:21.696Z,12.30
2023-04-28T16:45:43.824Z,12.30
2023-04-28T16:47:07.706Z,12.30
2023-04-28T16:48:30.004Z,12.30
2023-04-28T16:49:52.479Z,12.20
2023-04-28T16:51:14.788Z,12.30
2023-04-28T16:52:37.161Z,12.20
2023-04-28T16:53:59.263Z,12.20
2023-04-28T16:55:21.372Z,12.10
2023-04-28T16:56:43.448Z,12.10
2023-04-28T16:58:06.230Z,12.10
2023-04-28T16:59:31.214Z,12.10
2023-04-28T17:00:53.293Z,12.10
2023-04-28T17:02:15.434Z,12.00
2023-04-28T17:03:41.736Z,12.00
2023-04-28T17:05:04.486Z,12.00
2023-04-28T17:06:27.935Z,11.90
2023-04-28T17:07:50.105Z,11.80
2023-04-28T17:09:12.191Z,11.70
2023-04-28T17:10:37.759Z,11.70
2023-04-28T17:12:00.712Z,11.60
2023-04-28T17:13:22.891Z,11.60
2023-04-28T17:14:45.139Z,11.60
2023-04-28T17:16:07.434Z,11.60
2023-04-28T17:17:29.981Z,11.60
2023-04-28T17:18:53.034Z,11.60
2023-04-28T17:20:20.031Z,11.60
2023-04-28T17:21:42.343Z,11.50
2023-04-28T17:23:04.399Z,11.40
2023-04-28T17:24:26.440Z,11.40
2023-04-28T17:25:48.519Z,11.40
2023-04-28T17:27:10.868Z,11.40
2023-04-28T17:28:33.641Z,11.30
2023-04-28T17:29:55.885Z,11.40
2023-04-28T17:31:18.232Z,11.40
2023-04-28T17:32:40.891Z,11.30
2023-04-28T17:34:03.199Z,11.20
2023-04-28T17:35:25.770Z,11.20
2023-04-28T17:36:48.154Z,11.10
2023-04-28T17:38:10.414Z,11.20
2023-04-28T17:39:32.601Z,11.10
2023-04-28T17:40:54.951Z,11.10
2023-04-28T17:42:17.250Z,11.20
2023-04-28T17:43:39.390Z,11.10
2023-04-28T17:45:01.622Z,11.00
2023-04-28T17:46:23.886Z,11.00
2023-04-28T17:47:46.725Z,10.90
2023-04-28T17:49:09.189Z,10.90
2023-04-28T17:50:31.312Z,10.90
2023-04-28T17:51:53.602Z,10.80
2023-04-28T17:53:16.456Z,10.80
2023-04-28T17:54:38.582Z,10.80
2023-04-28T17:56:02.375Z,10.70
2023-04-28T17:57:24.820Z,10.70
2023-04-28T17:58:47.520Z,10.60
2023-04-28T18:00:12.091Z,10.70
2023-04-28T18:01:35.153Z,10.70
2023-04-28T18:02:58.752Z,10.70
2023-04-28T18:04:21.141Z,10.70
2023-04-28T18:05:43.299Z,10.70
2023-04-28T18:07:07.228Z,10.70
2023-04-28T18:08:29.379Z,10.70